McDonogh Run, Maryland
Current Conditions -  °F | °C
As of 1:54 AM on Saturday 25 Oct 2014 (Local Time) from KBWI Reporting Station
Clear Clear  
Wind Chill: 45°   Ceiling: Unl
Heat Index: 48°   Visibility: 10mi
Dew Point: 38°   Wind: 6mph
Humidity: 68%   Direction: 270°W
Pressure: 29.94"   Gusts: NA
Location:  39.3744°N, 76.8156°W
Report Text: KBWI 250554Z 27005KT 10SM CLR 09/03 A2994 RMK AO2 SLP138 T00890033 10133 20089 51003
Loading
Personal Weather Stations






























Interactive Weather Map
Tropical Storm Tracking
New forecast layout! Learn more

10-Day Weather Forecast

Advertisements
Track Severe Weather on mobile